19°C Temp
13°C Dewpoint
68% Humidity
Temperature
24 KM/H
15 MPH
13 KTS
250°
West South
West

Wind Speed
Partly Cloudy
Conditions
Pressure 1010.92 (hPa) - 29.85 (in)
Visibility 6.2 (mi) - 10.0 (km)

Current Conditions
LEJR
Location 25(km)
Metar :LEJR 091830Z 25013KT 230V290 9999 FEW020 19/13 Q1011
Sun 9th May 20:30 pm

Airport
  Metar Aviation API Data Provided by https://www.checkwx.com/ PHP scripts by weather34.com ©2021